createdAt,value
2022-10-05T00:00:01.424Z,11.05
2022-10-05T00:03:12.943Z,11.82
2022-10-05T00:06:19.823Z,10.70
2022-10-05T00:09:31.523Z,13.02
2022-10-05T00:12:39.641Z,14.45
2022-10-05T00:15:47.328Z,14.68
2022-10-05T00:19:00.978Z,12.75
2022-10-05T00:22:11.790Z,13.03
2022-10-05T00:25:23.134Z,12.75
2022-10-05T00:28:33.591Z,12.27
2022-10-05T00:31:41.535Z,14.48
2022-10-05T00:34:50.294Z,13.43
2022-10-05T00:37:59.498Z,15.57
2022-10-05T00:41:24.722Z,14.70
2022-10-05T00:44:37.985Z,10.48
2022-10-05T00:47:55.669Z,13.10
2022-10-05T00:51:31.348Z,12.57
2022-10-05T00:54:50.062Z,11.20
2022-10-05T00:57:58.437Z,11.88
2022-10-05T01:01:15.505Z,12.40
2022-10-05T01:05:12.637Z,12.50
2022-10-05T01:08:40.094Z,11.43
2022-10-05T01:12:15.875Z,13.32
2022-10-05T01:15:29.692Z,10.93
2022-10-05T01:18:52.457Z,11.02
2022-10-05T01:22:09.974Z,11.18
2022-10-05T01:25:41.210Z,11.23
2022-10-05T01:28:58.494Z,11.48
2022-10-05T01:32:25.550Z,12.32
2022-10-05T01:35:53.313Z,11.57
2022-10-05T01:39:17.126Z,15.75
2022-10-05T01:42:57.804Z,15.48
2022-10-05T01:49:57.169Z,11.38
2022-10-05T01:53:27.296Z,12.07
2022-10-05T01:56:42.881Z,17.83
2022-10-05T02:00:19.030Z,14.48
2022-10-05T02:03:52.770Z,13.75
2022-10-05T02:07:03.220Z,12.30
2022-10-05T02:10:34.313Z,11.68
2022-10-05T02:13:54.729Z,15.13
2022-10-05T02:17:10.296Z,16.67
2022-10-05T02:20:28.073Z,13.77
2022-10-05T02:23:38.679Z,12.93
2022-10-05T02:26:49.467Z,16.45
2022-10-05T02:33:22.851Z,12.30
2022-10-05T02:36:37.360Z,14.95
2022-10-05T02:40:00.238Z,16.92
2022-10-05T02:43:13.484Z,16.85
2022-10-05T02:46:32.871Z,15.75
2022-10-05T02:50:17.132Z,19.67
2022-10-05T02:53:28.537Z,16.73
2022-10-05T02:56:49.547Z,14.40
2022-10-05T03:00:06.091Z,12.50
2022-10-05T03:03:38.358Z,14.07
2022-10-05T03:07:18.035Z,12.80
2022-10-05T03:10:42.463Z,14.00
2022-10-05T03:14:14.147Z,16.00
2022-10-05T03:17:31.480Z,15.02
2022-10-05T03:21:01.377Z,11.80
2022-10-05T03:24:13.969Z,14.23
2022-10-05T03:27:47.104Z,15.25
2022-10-05T03:31:17.218Z,14.50
2022-10-05T03:35:01.456Z,13.75
2022-10-05T03:38:27.327Z,17.35
2022-10-05T03:41:49.453Z,14.87
2022-10-05T03:45:24.301Z,13.50
2022-10-05T03:48:35.954Z,18.17
2022-10-05T03:52:15.865Z,12.23
2022-10-05T03:55:37.251Z,14.82
2022-10-05T03:58:52.183Z,12.75
2022-10-05T04:02:09.206Z,14.87
2022-10-05T04:05:20.059Z,12.02
2022-10-05T04:09:13.103Z,11.93
2022-10-05T04:12:43.719Z,16.70
2022-10-05T04:16:04.759Z,11.77
2022-10-05T04:19:29.995Z,13.10
2022-10-05T04:22:42.250Z,16.08
2022-10-05T04:26:01.653Z,16.35
2022-10-05T04:29:18.246Z,14.35
2022-10-05T04:32:45.389Z,11.85
2022-10-05T04:36:03.343Z,14.32
2022-10-05T04:40:08.160Z,15.30
2022-10-05T04:43:42.996Z,16.83
2022-10-05T04:46:58.880Z,15.55
2022-10-05T04:50:29.709Z,19.20
2022-10-05T04:53:58.648Z,17.12
2022-10-05T04:57:12.175Z,17.67
2022-10-05T05:00:26.294Z,13.15
2022-10-05T05:04:10.802Z,19.25
2022-10-05T05:07:36.367Z,29.80
2022-10-05T05:10:52.055Z,21.67
2022-10-05T05:14:00.580Z,19.30
2022-10-05T05:17:35.896Z,22.17
2022-10-05T05:21:04.668Z,55.33
2022-10-05T05:24:38.991Z,27.13
2022-10-05T05:27:54.620Z,21.33
2022-10-05T05:31:10.941Z,18.80
2022-10-05T05:34:46.089Z,20.00
2022-10-05T05:38:03.173Z,22.80
2022-10-05T05:41:12.814Z,22.23
2022-10-05T05:44:26.989Z,15.30
2022-10-05T05:47:37.939Z,20.00
2022-10-05T05:51:06.056Z,21.77
2022-10-05T05:54:39.726Z,22.20
2022-10-05T05:57:56.901Z,21.65
2022-10-05T06:01:33.411Z,16.10
2022-10-05T06:04:46.165Z,16.50
2022-10-05T06:07:53.001Z,20.65
2022-10-05T06:11:14.883Z,19.05
2022-10-05T06:14:37.771Z,20.70
2022-10-05T06:17:47.815Z,17.65
2022-10-05T06:21:00.141Z,17.50
2022-10-05T06:24:16.178Z,16.35
2022-10-05T06:27:37.457Z,14.32
2022-10-05T06:30:47.623Z,15.27
2022-10-05T06:33:54.130Z,16.02
2022-10-05T06:37:09.469Z,15.65
2022-10-05T06:40:22.191Z,12.65
2022-10-05T06:43:39.107Z,14.55
2022-10-05T06:47:04.470Z,14.43
2022-10-05T06:50:18.634Z,15.13
2022-10-05T06:53:39.015Z,19.48
2022-10-05T06:56:52.623Z,14.73
2022-10-05T07:00:15.789Z,13.20
2022-10-05T07:03:50.268Z,19.20
2022-10-05T07:06:59.948Z,17.08
2022-10-05T07:10:17.592Z,15.10
2022-10-05T07:13:20.983Z,14.77
2022-10-05T07:16:43.631Z,13.75
2022-10-05T07:19:58.193Z,13.55
2022-10-05T07:23:40.890Z,17.15
2022-10-05T07:26:57.368Z,16.10
2022-10-05T07:30:08.171Z,14.52
2022-10-05T07:37:10.004Z,10.82
2022-10-05T07:40:25.928Z,12.40
2022-10-05T07:44:02.104Z,11.12
2022-10-05T07:47:31.299Z,7.10
2022-10-05T07:50:49.437Z,10.38
2022-10-05T07:54:10.512Z,13.62
2022-10-05T07:57:39.616Z,10.95
2022-10-05T08:00:48.470Z,10.70
2022-10-05T08:07:05.026Z,9.60
2022-10-05T08:10:15.229Z,11.93
2022-10-05T08:13:30.424Z,12.68
2022-10-05T08:16:38.936Z,10.15
2022-10-05T08:19:59.670Z,10.02
2022-10-05T08:23:19.979Z,15.50
2022-10-05T08:26:31.750Z,12.77
2022-10-05T08:30:07.462Z,9.18
2022-10-05T08:33:17.846Z,14.57
2022-10-05T08:36:44.073Z,12.27
2022-10-05T08:40:16.191Z,12.73
2022-10-05T08:43:55.754Z,13.95
2022-10-05T08:47:13.043Z,16.65
2022-10-05T08:50:42.320Z,17.45
2022-10-05T08:53:55.751Z,15.35
2022-10-05T08:57:12.477Z,15.40
2022-10-05T09:00:21.492Z,19.98
2022-10-05T09:07:05.980Z,14.77
2022-10-05T09:10:40.337Z,13.65
2022-10-05T09:14:04.885Z,15.63
2022-10-05T09:17:39.509Z,11.50
2022-10-05T09:21:22.175Z,17.15
2022-10-05T09:24:55.737Z,13.25
2022-10-05T09:28:23.716Z,17.58
2022-10-05T09:31:36.397Z,15.27
2022-10-05T09:34:55.708Z,13.00
2022-10-05T09:38:26.413Z,15.73
2022-10-05T09:41:45.227Z,12.32
2022-10-05T09:45:21.233Z,11.23
2022-10-05T09:49:12.094Z,8.50
2022-10-05T09:52:54.627Z,10.52
2022-10-05T09:56:20.673Z,15.50
2022-10-05T09:59:29.570Z,10.27
2022-10-05T10:03:15.360Z,13.20
2022-10-05T10:06:57.171Z,16.00
2022-10-05T10:10:32.670Z,10.25
2022-10-05T10:13:53.834Z,10.90
2022-10-05T10:16:58.176Z,15.25
2022-10-05T10:20:12.882Z,14.20
2022-10-05T10:23:17.009Z,11.02
2022-10-05T10:26:50.973Z,10.30
2022-10-05T10:30:12.351Z,10.13
2022-10-05T10:33:40.731Z,9.68
2022-10-05T10:37:07.493Z,12.13
2022-10-05T10:40:36.324Z,16.65
2022-10-05T10:44:12.855Z,9.73
2022-10-05T10:47:35.074Z,10.55
2022-10-05T10:51:06.526Z,16.33
2022-10-05T10:54:28.087Z,13.73
2022-10-05T10:58:01.912Z,9.07
2022-10-05T11:01:12.611Z,8.95
2022-10-05T11:04:21.878Z,11.12
2022-10-05T11:10:54.855Z,8.18
2022-10-05T11:14:03.067Z,10.63
2022-10-05T11:17:15.635Z,7.75
2022-10-05T11:20:24.682Z,11.68
2022-10-05T11:23:46.407Z,10.83
2022-10-05T11:27:12.980Z,7.80
2022-10-05T11:30:23.172Z,8.65
2022-10-05T11:33:32.726Z,9.35
2022-10-05T11:36:58.801Z,8.32
2022-10-05T11:40:42.743Z,9.35
2022-10-05T11:43:49.940Z,9.02
2022-10-05T11:47:22.172Z,10.75
2022-10-05T11:51:06.949Z,11.07
2022-10-05T11:54:38.270Z,13.90
2022-10-05T11:57:51.331Z,17.75
2022-10-05T12:01:05.457Z,12.40
2022-10-05T12:04:43.114Z,11.40
2022-10-05T12:08:06.450Z,12.55
2022-10-05T12:11:33.680Z,8.70
2022-10-05T12:15:02.250Z,14.32
2022-10-05T12:18:18.786Z,9.25
2022-10-05T12:21:39.668Z,13.68
2022-10-05T12:25:02.924Z,9.73
2022-10-05T12:28:17.374Z,11.05
2022-10-05T12:31:30.317Z,14.90
2022-10-05T12:35:01.737Z,11.68
2022-10-05T12:38:17.224Z,7.85
2022-10-05T12:41:29.070Z,12.90
2022-10-05T12:45:00.435Z,12.85
2022-10-05T12:48:37.710Z,14.73
2022-10-05T12:51:50.636Z,9.93
2022-10-05T12:55:22.031Z,15.80
2022-10-05T12:58:47.636Z,11.12
2022-10-05T13:01:50.923Z,11.93
2022-10-05T13:05:23.774Z,12.98
2022-10-05T13:08:38.349Z,13.80
2022-10-05T13:11:52.388Z,13.43
2022-10-05T13:15:18.465Z,10.43
2022-10-05T13:18:38.715Z,9.90
2022-10-05T13:21:58.178Z,14.90
2022-10-05T13:25:26.563Z,5.28
2022-10-05T13:28:50.315Z,5.03
2022-10-05T13:31:57.455Z,7.40
2022-10-05T13:35:25.823Z,5.00
2022-10-05T13:38:34.604Z,6.43
2022-10-05T13:42:05.145Z,5.25
2022-10-05T13:45:22.686Z,7.65
2022-10-05T13:48:55.131Z,6.20
2022-10-05T13:52:15.674Z,7.40
2022-10-05T13:55:29.823Z,7.97
2022-10-05T13:58:51.159Z,7.85
2022-10-05T14:02:05.828Z,14.40
2022-10-05T14:05:23.526Z,9.07
2022-10-05T14:08:35.925Z,7.82
2022-10-05T14:12:06.264Z,7.62
2022-10-05T14:15:31.913Z,7.97
2022-10-05T14:18:39.456Z,8.07
2022-10-05T14:22:06.753Z,12.60
2022-10-05T14:25:20.270Z,6.12
2022-10-05T14:28:31.850Z,7.75
2022-10-05T14:31:38.070Z,5.25
2022-10-05T14:34:55.587Z,8.02
2022-10-05T14:38:03.194Z,9.93
2022-10-05T14:41:28.606Z,9.73
2022-10-05T14:47:46.679Z,9.88
2022-10-05T14:51:03.475Z,11.63
2022-10-05T14:54:34.858Z,7.20
2022-10-05T14:57:57.686Z,9.40
2022-10-05T15:01:21.073Z,6.12
2022-10-05T15:04:33.248Z,5.78
2022-10-05T15:07:44.919Z,9.80
2022-10-05T15:10:58.219Z,5.85
2022-10-05T15:14:06.898Z,11.73
2022-10-05T15:17:20.508Z,16.17
2022-10-05T15:20:53.958Z,7.87
2022-10-05T15:24:06.231Z,10.30
2022-10-05T15:27:24.833Z,7.90
2022-10-05T15:30:35.140Z,8.75
2022-10-05T15:33:55.601Z,10.90
2022-10-05T15:37:36.597Z,9.07
2022-10-05T15:41:23.348Z,6.85
2022-10-05T15:44:31.939Z,8.77
2022-10-05T15:47:57.894Z,11.45
2022-10-05T15:51:30.187Z,9.35
2022-10-05T15:58:13.112Z,14.50
2022-10-05T16:01:19.893Z,9.90
2022-10-05T16:04:48.652Z,10.45
2022-10-05T16:08:13.413Z,6.57
2022-10-05T16:11:43.284Z,6.97
2022-10-05T16:15:16.499Z,11.23
2022-10-05T16:18:43.752Z,7.60
2022-10-05T16:22:26.902Z,11.73
2022-10-05T16:26:03.498Z,9.80
2022-10-05T16:29:22.368Z,12.95
2022-10-05T16:32:39.624Z,9.82
2022-10-05T16:35:57.600Z,8.30
2022-10-05T16:40:01.504Z,9.75
2022-10-05T16:43:46.417Z,8.65
2022-10-05T16:47:12.830Z,7.72
2022-10-05T16:50:45.060Z,8.45
2022-10-05T16:54:26.061Z,8.82
2022-10-05T16:57:37.448Z,8.32
2022-10-05T17:00:53.411Z,7.80
2022-10-05T17:04:01.804Z,10.38
2022-10-05T17:07:23.511Z,9.95
2022-10-05T17:10:34.855Z,11.98
2022-10-05T17:13:56.343Z,10.15
2022-10-05T17:17:16.346Z,6.20
2022-10-05T17:20:54.264Z,11.47
2022-10-05T17:24:26.080Z,9.40
2022-10-05T17:27:51.153Z,10.82
2022-10-05T17:31:16.897Z,12.55
2022-10-05T17:34:24.297Z,14.85
2022-10-05T17:37:36.599Z,13.23
2022-10-05T17:41:22.941Z,10.38
2022-10-05T17:44:29.582Z,13.60
2022-10-05T17:47:58.872Z,12.82
2022-10-05T17:51:35.595Z,13.50
2022-10-05T17:55:06.190Z,18.50
2022-10-05T17:58:28.655Z,13.20
2022-10-05T18:01:42.222Z,14.52
2022-10-05T18:05:13.658Z,15.60
2022-10-05T18:08:32.517Z,12.20
2022-10-05T18:11:45.643Z,18.08
2022-10-05T18:15:03.721Z,14.65
2022-10-05T18:18:36.721Z,12.73
2022-10-05T18:22:05.845Z,15.05
2022-10-05T18:25:31.894Z,13.75
2022-10-05T18:29:15.284Z,15.77
2022-10-05T18:32:55.265Z,11.65
2022-10-05T18:36:11.550Z,14.93
2022-10-05T18:39:53.503Z,17.20
2022-10-05T18:43:29.027Z,13.38
2022-10-05T18:46:48.014Z,14.43
2022-10-05T18:50:22.215Z,12.88
2022-10-05T18:53:47.511Z,16.15
2022-10-05T18:56:54.402Z,16.70
2022-10-05T19:00:09.565Z,15.63
2022-10-05T19:03:30.564Z,18.75
2022-10-05T19:06:47.298Z,19.45
2022-10-05T19:10:06.470Z,15.80
2022-10-05T19:13:35.118Z,15.13
2022-10-05T19:16:52.324Z,17.33
2022-10-05T19:20:17.607Z,17.73
2022-10-05T19:23:42.193Z,16.83
2022-10-05T19:27:04.070Z,17.00
2022-10-05T19:30:32.489Z,15.95
2022-10-05T19:33:58.694Z,15.65
2022-10-05T19:37:20.608Z,15.32
2022-10-05T19:40:34.945Z,15.95
2022-10-05T19:43:52.396Z,20.60
2022-10-05T19:47:28.722Z,19.27
2022-10-05T19:50:36.074Z,18.62
2022-10-05T19:53:47.726Z,20.25
2022-10-05T19:56:54.625Z,19.75
2022-10-05T20:00:00.755Z,16.80
2022-10-05T20:03:18.866Z,21.35
2022-10-05T20:06:28.192Z,16.98
2022-10-05T20:10:02.833Z,17.37
2022-10-05T20:13:20.982Z,18.73
2022-10-05T20:16:48.407Z,19.17
2022-10-05T20:20:12.475Z,17.80
2022-10-05T20:23:25.949Z,21.95
2022-10-05T20:27:03.584Z,16.33
2022-10-05T20:30:12.103Z,18.48
2022-10-05T20:33:17.362Z,18.75
2022-10-05T20:36:21.765Z,18.00
2022-10-05T20:39:27.075Z,17.05
2022-10-05T20:42:33.332Z,18.35
2022-10-05T20:45:44.782Z,21.42
2022-10-05T20:48:54.098Z,22.33
2022-10-05T20:52:01.224Z,19.77
2022-10-05T20:55:09.535Z,19.25
2022-10-05T20:58:18.066Z,18.67
2022-10-05T21:01:27.902Z,26.30
2022-10-05T21:04:41.982Z,22.30
2022-10-05T21:07:47.158Z,17.52
2022-10-05T21:10:53.908Z,17.95
2022-10-05T21:14:01.001Z,22.83
2022-10-05T21:17:13.109Z,20.75
2022-10-05T21:20:19.649Z,20.48
2022-10-05T21:23:26.672Z,21.08
2022-10-05T21:26:33.405Z,20.83
2022-10-05T21:29:37.421Z,22.65
2022-10-05T21:32:44.461Z,20.08
2022-10-05T21:35:50.875Z,20.35
2022-10-05T21:38:55.625Z,22.13
2022-10-05T21:42:03.859Z,22.23
2022-10-05T21:45:12.597Z,18.08
2022-10-05T21:48:20.666Z,18.12
2022-10-05T21:51:28.512Z,22.75
2022-10-05T21:54:35.808Z,25.35
2022-10-05T21:57:42.705Z,18.33
2022-10-05T22:00:53.672Z,22.58
2022-10-05T22:04:03.010Z,21.90
2022-10-05T22:07:20.365Z,22.00
2022-10-05T22:10:29.648Z,19.58
2022-10-05T22:13:44.056Z,18.90
2022-10-05T22:16:50.973Z,20.25
2022-10-05T22:19:57.946Z,16.90
2022-10-05T22:23:06.453Z,22.52
2022-10-05T22:26:19.138Z,20.52
2022-10-05T22:29:32.609Z,22.37
2022-10-05T22:32:39.983Z,22.75
2022-10-05T22:35:49.745Z,20.75
2022-10-05T22:38:58.425Z,23.67
2022-10-05T22:42:06.733Z,22.25
2022-10-05T22:45:15.933Z,22.83
2022-10-05T22:48:26.147Z,25.55
2022-10-05T22:51:33.323Z,23.65
2022-10-05T22:54:43.359Z,23.12
2022-10-05T22:57:55.195Z,23.05
2022-10-05T23:01:04.219Z,20.67
2022-10-05T23:04:11.370Z,23.20
2022-10-05T23:07:20.345Z,19.42
2022-10-05T23:10:29.519Z,21.80
2022-10-05T23:13:37.088Z,24.27
2022-10-05T23:16:44.967Z,21.60
2022-10-05T23:19:50.583Z,21.98
2022-10-05T23:22:58.187Z,22.92
2022-10-05T23:26:05.345Z,20.02
2022-10-05T23:29:10.718Z,19.70
2022-10-05T23:32:16.543Z,21.48
2022-10-05T23:35:19.796Z,24.37
2022-10-05T23:38:25.246Z,19.87
2022-10-05T23:41:34.471Z,21.73
2022-10-05T23:44:41.957Z,21.52
2022-10-05T23:47:49.278Z,20.95
2022-10-05T23:50:57.101Z,17.73
2022-10-05T23:54:06.274Z,17.58
2022-10-05T23:57:19.605Z,21.58
